createdAt,value
2023-03-17T00:00:32.872Z,6.80
2023-03-17T00:02:36.362Z,6.90
2023-03-17T00:04:41.670Z,6.67
2023-03-17T00:06:45.268Z,6.60
2023-03-17T00:08:48.954Z,6.10
2023-03-17T00:10:52.895Z,6.80
2023-03-17T00:12:56.968Z,6.90
2023-03-17T00:15:02.552Z,6.00
2023-03-17T00:17:06.779Z,6.40
2023-03-17T00:19:12.027Z,6.40
2023-03-17T00:21:17.998Z,7.13
2023-03-17T00:23:22.638Z,6.73
2023-03-17T00:25:29.171Z,6.33
2023-03-17T00:28:31.227Z,5.67
2023-03-17T00:30:34.796Z,6.43
2023-03-17T00:32:39.917Z,6.73
2023-03-17T00:34:45.697Z,6.67
2023-03-17T00:36:51.124Z,6.67
2023-03-17T00:38:54.612Z,6.40
2023-03-17T00:45:18.970Z,6.77
2023-03-17T00:47:23.242Z,6.30
2023-03-17T00:49:27.044Z,6.63
2023-03-17T00:54:57.953Z,6.67
2023-03-17T00:57:01.371Z,7.07
2023-03-17T00:59:05.127Z,6.73
2023-03-17T01:01:08.757Z,6.70
2023-03-17T01:03:17.732Z,6.90
2023-03-17T01:05:21.287Z,6.70
2023-03-17T01:07:24.847Z,6.63
2023-03-17T01:09:28.836Z,6.43
2023-03-17T01:12:26.684Z,6.83
2023-03-17T01:14:31.878Z,7.00
2023-03-17T01:16:35.246Z,6.77
2023-03-17T01:18:39.809Z,6.03
2023-03-17T01:21:37.171Z,6.33
2023-03-17T01:23:40.725Z,6.53
2023-03-17T01:25:44.742Z,8.07
2023-03-17T01:27:51.093Z,6.87
2023-03-17T01:29:56.883Z,6.93
2023-03-17T01:32:34.818Z,6.43
2023-03-17T01:34:38.102Z,5.93
2023-03-17T01:36:42.096Z,6.90
2023-03-17T01:38:52.820Z,6.87
2023-03-17T01:40:57.056Z,6.90
2023-03-17T01:59:09.845Z,6.57
2023-03-17T02:01:14.292Z,6.23
2023-03-17T02:03:20.040Z,6.70
2023-03-17T02:05:24.680Z,6.20
2023-03-17T02:07:35.140Z,6.73
2023-03-17T02:09:39.096Z,6.60
2023-03-17T02:11:42.465Z,6.13
2023-03-17T02:13:49.811Z,6.50
2023-03-17T02:15:54.675Z,6.60
2023-03-17T02:17:58.920Z,6.13
2023-03-17T02:20:40.886Z,6.80
2023-03-17T02:22:46.784Z,5.93
2023-03-17T02:24:52.216Z,6.17
2023-03-17T02:26:59.536Z,6.23
2023-03-17T02:29:05.374Z,6.13
2023-03-17T02:31:09.663Z,6.17
2023-03-17T02:33:13.230Z,6.70
2023-03-17T02:35:16.607Z,5.80
2023-03-17T02:37:39.830Z,6.33
2023-03-17T02:39:44.674Z,5.80
2023-03-17T02:41:48.135Z,6.47
2023-03-17T02:43:58.926Z,6.53
2023-03-17T02:46:02.460Z,6.30
2023-03-17T02:48:06.493Z,6.53
2023-03-17T02:50:10.986Z,5.23
2023-03-17T02:52:14.386Z,5.67
2023-03-17T02:54:17.880Z,6.20
2023-03-17T02:56:22.793Z,6.80
2023-03-17T02:58:56.006Z,6.30
2023-03-17T03:00:59.667Z,6.10
2023-03-17T03:03:03.161Z,6.17
2023-03-17T03:05:07.673Z,6.53
2023-03-17T03:07:11.615Z,6.67
2023-03-17T03:09:15.023Z,5.93
2023-03-17T03:11:18.857Z,6.50
2023-03-17T03:13:26.519Z,6.70
2023-03-17T03:15:31.054Z,5.97
2023-03-17T03:18:12.488Z,6.00
2023-03-17T03:20:16.335Z,5.60
2023-03-17T03:22:20.107Z,6.07
2023-03-17T03:24:23.615Z,5.87
2023-03-17T03:26:27.471Z,6.60
2023-03-17T03:28:32.420Z,6.23
2023-03-17T04:11:09.898Z,6.23
2023-03-17T04:13:15.636Z,6.00
2023-03-17T04:15:19.838Z,5.80
2023-03-17T04:17:23.293Z,5.50
2023-03-17T04:19:30.623Z,6.43
2023-03-17T04:21:34.086Z,6.00
2023-03-17T04:23:37.672Z,5.80
2023-03-17T04:25:41.086Z,5.70
2023-03-17T04:27:44.580Z,5.87
2023-03-17T04:29:50.638Z,5.70
2023-03-17T04:31:54.541Z,6.10
2023-03-17T04:34:46.560Z,6.00
2023-03-17T04:36:50.071Z,5.77
2023-03-17T04:38:53.569Z,5.40
2023-03-17T04:40:57.093Z,5.80
2023-03-17T04:43:03.285Z,6.20
2023-03-17T04:47:09.125Z,6.00
2023-03-17T04:49:12.511Z,6.30
2023-03-17T04:51:15.712Z,6.17
2023-03-17T04:53:22.518Z,5.90
2023-03-17T04:55:26.194Z,5.80
2023-03-17T04:57:29.720Z,5.97
2023-03-17T04:59:33.119Z,6.50
2023-03-17T05:01:39.071Z,5.80
2023-03-17T05:03:47.466Z,5.63
2023-03-17T05:55:30.024Z,5.70
2023-03-17T05:57:33.581Z,6.33
2023-03-17T05:59:37.495Z,6.70
2023-03-17T06:01:41.286Z,6.33
2023-03-17T06:03:46.427Z,6.53
2023-03-17T06:05:50.144Z,6.17
2023-03-17T06:07:56.385Z,6.13
2023-03-17T06:10:00.581Z,6.57
2023-03-17T06:12:06.828Z,6.63
2023-03-17T06:14:10.720Z,6.13
2023-03-17T06:16:55.695Z,6.53
2023-03-17T06:18:59.249Z,6.77
2023-03-17T06:21:02.950Z,6.03
2023-03-17T06:23:07.138Z,6.40
2023-03-17T06:25:11.593Z,6.47
2023-03-17T06:27:16.847Z,5.70
2023-03-17T06:29:20.796Z,6.23
2023-03-17T06:31:24.530Z,6.20
2023-03-17T06:33:30.378Z,5.90
2023-03-17T06:35:35.311Z,6.10
2023-03-17T06:37:39.383Z,6.27
2023-03-17T06:39:43.379Z,6.13
2023-03-17T06:41:47.600Z,6.53
2023-03-17T06:43:52.978Z,5.90
2023-03-17T06:50:18.149Z,6.57
2023-03-17T06:52:21.969Z,6.40
2023-03-17T06:54:26.407Z,6.72
2023-03-17T06:56:38.605Z,6.70
2023-03-17T06:58:42.403Z,6.05
2023-03-17T07:00:49.199Z,6.40
2023-03-17T07:02:52.892Z,6.85
2023-03-17T07:04:57.927Z,6.43
2023-03-17T07:07:13.882Z,6.55
2023-03-17T07:09:17.774Z,7.18
2023-03-17T07:11:32.922Z,6.32
2023-03-17T07:13:38.989Z,6.22
2023-03-17T07:15:42.922Z,6.80
2023-03-17T07:17:48.184Z,6.88
2023-03-17T07:19:52.467Z,6.57
2023-03-17T07:21:56.631Z,7.28
2023-03-17T07:24:13.093Z,7.05
2023-03-17T07:26:16.493Z,6.50
2023-03-17T07:28:21.863Z,6.95
2023-03-17T07:30:25.557Z,6.95
2023-03-17T07:32:29.607Z,6.78
2023-03-17T07:34:35.042Z,7.00
2023-03-17T07:36:39.034Z,6.45
2023-03-17T07:39:39.887Z,6.35
2023-03-17T07:41:44.302Z,6.72
2023-03-17T07:43:48.233Z,6.88
2023-03-17T07:45:53.323Z,7.22
2023-03-17T07:47:57.126Z,7.50
2023-03-17T07:50:02.111Z,7.13
2023-03-17T07:52:06.678Z,6.68
2023-03-17T07:54:11.216Z,7.00
2023-03-17T07:56:15.530Z,6.55
2023-03-17T07:58:34.928Z,6.95
2023-03-17T08:00:38.453Z,7.72
2023-03-17T08:02:42.528Z,6.93
2023-03-17T08:04:46.964Z,7.10
2023-03-17T08:06:52.636Z,7.25
2023-03-17T08:08:56.736Z,7.22
2023-03-17T08:11:03.859Z,6.82
2023-03-17T08:13:07.957Z,7.00
2023-03-17T08:15:27.046Z,7.45
2023-03-17T08:17:30.911Z,7.32
2023-03-17T08:19:35.023Z,7.13
2023-03-17T08:21:38.925Z,7.45
2023-03-17T08:23:45.015Z,7.20
2023-03-17T08:25:49.048Z,6.80
2023-03-17T08:27:52.849Z,7.15
2023-03-17T08:29:58.051Z,7.80
2023-03-17T08:32:04.534Z,7.88
2023-03-17T08:34:08.809Z,7.07
2023-03-17T08:36:13.015Z,7.05
2023-03-17T08:38:16.836Z,7.65
2023-03-17T08:40:22.486Z,6.93
2023-03-17T08:42:26.440Z,6.70
2023-03-17T08:44:30.410Z,7.25
2023-03-17T08:46:34.167Z,6.82
2023-03-17T08:48:38.556Z,7.60
2023-03-17T08:50:42.568Z,7.40
2023-03-17T08:52:47.029Z,7.75
2023-03-17T08:54:50.808Z,7.45
2023-03-17T08:56:56.017Z,7.40
2023-03-17T08:59:00.647Z,7.20
2023-03-17T09:01:05.217Z,7.43
2023-03-17T09:03:09.784Z,7.65
2023-03-17T09:05:13.971Z,7.63
2023-03-17T09:07:17.617Z,7.93
2023-03-17T09:09:25.417Z,7.30
2023-03-17T09:11:36.331Z,7.32
2023-03-17T09:13:41.892Z,7.70
2023-03-17T09:15:45.935Z,7.78
2023-03-17T09:17:49.666Z,7.57
2023-03-17T09:19:53.763Z,7.43
2023-03-17T09:21:57.914Z,7.63
2023-03-17T09:24:02.742Z,7.20
2023-03-17T09:26:07.777Z,6.90
2023-03-17T09:28:12.857Z,7.35
2023-03-17T09:30:19.121Z,6.97
2023-03-17T09:32:23.016Z,7.95
2023-03-17T09:34:27.109Z,7.07
2023-03-17T09:36:31.250Z,8.05
2023-03-17T09:38:36.539Z,6.68
2023-03-17T09:40:46.885Z,7.80
2023-03-17T09:42:59.618Z,8.02
2023-03-17T09:45:08.933Z,7.90
2023-03-17T09:47:21.737Z,7.28
2023-03-17T09:49:39.419Z,7.10
2023-03-17T09:51:43.335Z,7.30
2023-03-17T09:53:50.295Z,8.27
2023-03-17T09:55:56.893Z,7.00
2023-03-17T09:58:01.128Z,7.82
2023-03-17T10:00:08.033Z,6.70
2023-03-17T10:02:19.421Z,7.07
2023-03-17T10:04:23.258Z,7.65
2023-03-17T10:06:34.951Z,7.30
2023-03-17T10:08:39.174Z,7.57
2023-03-17T10:10:46.781Z,7.32
2023-03-17T10:12:57.625Z,7.07
2023-03-17T10:15:03.877Z,7.22
2023-03-17T10:17:18.959Z,6.30
2023-03-17T10:19:27.165Z,7.15
2023-03-17T10:21:33.153Z,7.60
2023-03-17T10:23:37.444Z,7.35
2023-03-17T10:25:41.783Z,6.97
2023-03-17T10:27:47.626Z,7.00
2023-03-17T10:29:52.813Z,6.57
2023-03-17T10:31:58.770Z,7.30
2023-03-17T10:34:13.396Z,7.15
2023-03-17T10:36:18.019Z,7.70
2023-03-17T10:38:22.866Z,6.75
2023-03-17T10:40:28.813Z,7.28
2023-03-17T10:42:36.224Z,7.07
2023-03-17T10:44:43.186Z,7.28
2023-03-17T10:46:47.064Z,6.97
2023-03-17T10:48:55.092Z,6.85
2023-03-17T10:51:00.519Z,6.03
2023-03-17T10:53:07.748Z,6.93
2023-03-17T10:55:14.699Z,6.30
2023-03-17T10:57:18.671Z,6.68
2023-03-17T10:59:28.129Z,6.53
2023-03-17T11:01:35.702Z,6.22
2023-03-17T11:03:40.761Z,6.53
2023-03-17T11:05:46.091Z,6.28
2023-03-17T11:07:58.841Z,6.38
2023-03-17T11:10:03.494Z,6.68
2023-03-17T11:12:09.641Z,6.40
2023-03-17T11:14:14.836Z,7.68
2023-03-17T11:16:23.520Z,6.57
2023-03-17T11:18:31.360Z,6.13
2023-03-17T11:20:46.007Z,6.55
2023-03-17T11:22:54.929Z,7.20
2023-03-17T11:25:00.995Z,7.25
2023-03-17T11:27:07.583Z,7.00
2023-03-17T11:29:22.648Z,6.80
2023-03-17T11:31:28.722Z,6.30
2023-03-17T11:33:37.717Z,6.60
2023-03-17T11:35:48.657Z,6.70
2023-03-17T11:38:07.796Z,5.80
2023-03-17T11:40:18.247Z,6.47
2023-03-17T11:42:22.782Z,6.30
2023-03-17T11:44:48.072Z,6.72
2023-03-17T11:46:53.582Z,6.30
2023-03-17T11:48:59.693Z,7.05
2023-03-17T11:51:04.723Z,6.93
2023-03-17T11:53:23.202Z,7.07
2023-03-17T11:55:27.967Z,6.35
2023-03-17T11:57:33.270Z,6.63
2023-03-17T11:59:38.339Z,6.50
2023-03-17T12:01:48.901Z,7.28
2023-03-17T12:03:55.428Z,6.88
2023-03-17T12:06:02.258Z,7.20
2023-03-17T12:08:07.689Z,6.45
2023-03-17T12:10:18.209Z,6.65
2023-03-17T12:12:25.182Z,6.28
2023-03-17T12:14:31.030Z,6.47
2023-03-17T12:16:37.480Z,6.82
2023-03-17T12:18:43.155Z,6.78
2023-03-17T12:20:50.023Z,6.45
2023-03-17T12:22:57.134Z,6.47
2023-03-17T12:25:07.029Z,6.75
2023-03-17T12:27:15.612Z,7.13
2023-03-17T12:29:21.089Z,6.15
2023-03-17T12:31:27.226Z,6.32
2023-03-17T12:33:32.376Z,6.65
2023-03-17T12:35:37.414Z,5.93
2023-03-17T12:37:41.704Z,6.28
2023-03-17T12:39:50.958Z,6.38
2023-03-17T12:42:20.355Z,6.28
2023-03-17T12:44:31.086Z,6.45
2023-03-17T12:46:59.873Z,6.97
2023-03-17T12:49:21.108Z,7.15
2023-03-17T12:51:33.512Z,6.35
2023-03-17T12:53:38.712Z,6.47
2023-03-17T12:55:42.522Z,6.47
2023-03-17T12:57:48.941Z,7.30
2023-03-17T12:59:58.949Z,6.47
2023-03-17T13:02:15.710Z,6.70
2023-03-17T13:04:22.508Z,6.65
2023-03-17T13:06:26.487Z,6.13
2023-03-17T13:08:32.023Z,6.60
2023-03-17T13:10:41.822Z,6.82
2023-03-17T13:13:10.085Z,6.43
2023-03-17T13:15:24.402Z,7.18
2023-03-17T13:17:41.084Z,6.47
2023-03-17T13:19:49.223Z,7.05
2023-03-17T13:21:59.257Z,7.07
2023-03-17T13:24:25.901Z,6.53
2023-03-17T13:26:55.477Z,6.65
2023-03-17T13:29:01.770Z,7.50
2023-03-17T13:31:13.415Z,7.15
2023-03-17T13:33:23.282Z,6.45
2023-03-17T13:35:39.335Z,7.20
2023-03-17T13:38:00.371Z,7.18
2023-03-17T13:40:13.000Z,7.05
2023-03-17T13:42:38.628Z,7.30
2023-03-17T13:45:03.254Z,7.25
2023-03-17T13:47:28.508Z,6.85
2023-03-17T13:49:32.447Z,7.13
2023-03-17T13:51:36.824Z,7.15
2023-03-17T13:53:43.005Z,7.03
2023-03-17T13:56:14.590Z,7.05
2023-03-17T13:58:26.487Z,7.47
2023-03-17T14:00:31.744Z,7.03
2023-03-17T14:02:36.734Z,7.00
2023-03-17T14:04:46.500Z,7.28
2023-03-17T14:06:51.015Z,6.93
2023-03-17T14:08:55.429Z,7.10
2023-03-17T14:11:01.001Z,7.10
2023-03-17T14:13:09.627Z,7.00
2023-03-17T14:15:17.974Z,6.78
2023-03-17T14:17:26.091Z,7.63
2023-03-17T14:19:30.361Z,6.60
2023-03-17T14:21:34.316Z,6.95
2023-03-17T14:23:39.212Z,7.40
2023-03-17T14:25:44.469Z,7.60
2023-03-17T14:27:49.753Z,8.02
2023-03-17T14:29:55.280Z,7.72
2023-03-17T14:32:04.390Z,6.97
2023-03-17T14:34:15.347Z,7.25
2023-03-17T14:36:19.623Z,7.68
2023-03-17T14:38:24.476Z,7.28
2023-03-17T14:40:29.316Z,7.13
2023-03-17T14:42:33.353Z,7.63
2023-03-17T14:44:40.435Z,7.15
2023-03-17T14:46:45.578Z,7.30
2023-03-17T14:48:50.562Z,7.25
2023-03-17T14:51:06.839Z,6.70
2023-03-17T14:53:10.987Z,7.82
2023-03-17T14:55:15.845Z,7.32
2023-03-17T14:57:19.579Z,7.45
2023-03-17T14:59:25.471Z,7.93
2023-03-17T15:01:36.280Z,8.10
2023-03-17T15:03:42.312Z,7.80
2023-03-17T15:05:46.898Z,6.82
2023-03-17T15:07:52.229Z,8.13
2023-03-17T15:10:01.895Z,7.80
2023-03-17T15:12:07.607Z,7.88
2023-03-17T15:14:21.237Z,6.90
2023-03-17T15:16:26.434Z,7.10
2023-03-17T15:18:30.691Z,7.13
2023-03-17T15:20:35.681Z,6.50
2023-03-17T15:22:42.912Z,7.40
2023-03-17T15:24:51.168Z,7.80
2023-03-17T15:27:05.116Z,6.28
2023-03-17T15:29:08.957Z,6.82
2023-03-17T15:31:13.661Z,7.28
2023-03-17T15:33:22.044Z,7.68
2023-03-17T15:35:27.424Z,6.95
2023-03-17T15:37:32.406Z,7.07
2023-03-17T15:39:36.304Z,5.72
2023-03-17T15:41:42.086Z,6.60
2023-03-17T15:43:45.986Z,6.15
2023-03-17T15:45:53.422Z,6.50
2023-03-17T15:47:58.526Z,6.20
2023-03-17T15:50:04.615Z,6.68
2023-03-17T15:52:18.204Z,7.05
2023-03-17T15:54:22.542Z,7.75
2023-03-17T15:56:29.465Z,6.95
2023-03-17T15:58:35.359Z,6.35
2023-03-17T16:00:39.276Z,6.72
2023-03-17T16:02:43.104Z,7.07
2023-03-17T16:04:47.089Z,6.68
2023-03-17T16:06:52.328Z,7.18
2023-03-17T16:08:56.278Z,7.43
2023-03-17T16:11:00.325Z,7.20
2023-03-17T16:13:04.278Z,7.20
2023-03-17T16:15:22.596Z,7.45
2023-03-17T16:17:30.812Z,7.22
2023-03-17T16:19:35.924Z,7.00
2023-03-17T16:21:39.726Z,6.55
2023-03-17T16:23:44.042Z,7.15
2023-03-17T16:25:48.689Z,7.05
2023-03-17T16:27:52.797Z,6.90
2023-03-17T16:29:56.532Z,7.07
2023-03-17T16:32:01.876Z,6.30
2023-03-17T16:34:11.926Z,7.70
2023-03-17T16:36:18.074Z,7.63
2023-03-17T16:38:23.435Z,7.22
2023-03-17T16:40:28.062Z,7.35
2023-03-17T16:42:32.699Z,7.70
2023-03-17T16:44:36.828Z,7.28
2023-03-17T16:46:45.278Z,7.00
2023-03-17T16:48:51.482Z,8.10
2023-03-17T16:50:54.910Z,7.85
2023-03-17T16:52:59.108Z,8.32
2023-03-17T16:55:03.412Z,7.32
2023-03-17T16:57:08.073Z,7.65
2023-03-17T16:59:20.991Z,7.90
2023-03-17T17:01:26.823Z,7.90
2023-03-17T17:03:31.364Z,8.25
2023-03-17T17:05:37.273Z,7.53
2023-03-17T17:07:41.256Z,8.43
2023-03-17T17:09:44.827Z,7.75
2023-03-17T17:11:48.541Z,8.20
2023-03-17T17:13:52.085Z,7.93
2023-03-17T17:15:56.891Z,7.82
2023-03-17T17:18:03.442Z,7.60
2023-03-17T17:20:09.355Z,7.57
2023-03-17T17:22:15.919Z,7.90
2023-03-17T17:24:20.917Z,8.15
2023-03-17T17:26:31.205Z,7.38
2023-03-17T17:28:36.916Z,7.53
2023-03-17T17:30:46.307Z,7.15
2023-03-17T17:32:51.415Z,7.53
2023-03-17T17:34:56.545Z,7.63
2023-03-17T17:37:00.886Z,7.90
2023-03-17T17:39:07.258Z,7.00
2023-03-17T17:41:12.825Z,7.22
2023-03-17T17:43:18.408Z,8.55
2023-03-17T17:45:24.547Z,8.20
2023-03-17T17:47:32.237Z,8.27
2023-03-17T17:49:37.257Z,7.25
2023-03-17T17:51:41.576Z,7.78
2023-03-17T17:53:45.828Z,8.00
2023-03-17T17:55:53.243Z,8.90
2023-03-17T17:57:59.692Z,9.32
2023-03-17T18:00:08.606Z,8.85
2023-03-17T18:02:14.070Z,8.75
2023-03-17T18:04:18.654Z,8.73
2023-03-17T18:06:23.122Z,7.53
2023-03-17T18:08:27.298Z,8.13
2023-03-17T18:10:32.664Z,7.72
2023-03-17T18:12:39.132Z,7.35
2023-03-17T18:14:43.949Z,7.60
2023-03-17T18:16:50.020Z,7.05
2023-03-17T18:18:54.882Z,6.85
2023-03-17T18:21:00.343Z,6.63
2023-03-17T18:23:05.449Z,5.88
2023-03-17T18:25:11.418Z,7.10
2023-03-17T18:27:16.085Z,7.13
2023-03-17T18:29:21.898Z,6.80
2023-03-17T18:31:28.190Z,6.20
2023-03-17T18:33:32.792Z,6.68
2023-03-17T18:35:37.915Z,6.40
2023-03-17T18:37:42.164Z,6.65
2023-03-17T18:39:55.526Z,6.10
2023-03-17T18:42:14.365Z,6.22
2023-03-17T18:44:22.572Z,6.65
2023-03-17T18:46:28.257Z,5.70
2023-03-17T18:48:36.585Z,6.07
2023-03-17T18:50:44.299Z,6.90
2023-03-17T18:52:50.335Z,6.43
2023-03-17T18:55:10.571Z,6.40
2023-03-17T18:57:24.198Z,6.70
2023-03-17T18:59:42.113Z,7.10
2023-03-17T19:02:01.097Z,7.60
2023-03-17T19:04:20.525Z,6.85
2023-03-17T19:06:33.422Z,7.60
2023-03-17T19:08:51.645Z,7.05
2023-03-17T19:11:19.301Z,8.15
2023-03-17T19:13:28.169Z,7.57
2023-03-17T19:15:50.468Z,7.40
2023-03-17T19:18:06.005Z,7.45
2023-03-17T19:20:24.047Z,7.53
2023-03-17T19:22:36.542Z,7.80
2023-03-17T19:24:52.769Z,7.05
2023-03-17T19:27:12.239Z,7.53
2023-03-17T19:29:29.458Z,6.97
2023-03-17T19:31:49.419Z,6.72
2023-03-17T19:34:14.590Z,6.80
2023-03-17T19:36:31.893Z,7.03
2023-03-17T19:38:53.042Z,6.65
2023-03-17T19:41:07.687Z,6.65
2023-03-17T19:43:40.427Z,6.53
2023-03-17T19:46:00.675Z,6.55
2023-03-17T19:48:16.560Z,7.50
2023-03-17T19:50:42.578Z,7.25
2023-03-17T19:52:58.616Z,7.50
2023-03-17T19:55:24.389Z,7.15
2023-03-17T19:57:44.578Z,8.27
2023-03-17T20:00:03.863Z,7.18
2023-03-17T20:02:18.019Z,7.45
2023-03-17T20:04:37.087Z,7.88
2023-03-17T20:06:45.164Z,8.75
2023-03-17T20:08:51.842Z,7.78
2023-03-17T20:11:07.962Z,7.78
2023-03-17T20:13:13.129Z,7.47
2023-03-17T20:15:26.552Z,8.43
2023-03-17T20:17:38.800Z,8.85
2023-03-17T20:19:49.637Z,8.38
2023-03-17T20:22:03.134Z,8.80
2023-03-17T20:24:15.434Z,9.20
2023-03-17T20:26:27.009Z,8.27
2023-03-17T20:28:30.546Z,8.63
2023-03-17T20:30:35.800Z,8.95
2023-03-17T20:32:42.377Z,8.82
2023-03-17T20:34:47.084Z,8.23
2023-03-17T20:36:57.647Z,8.52
2023-03-17T20:39:03.368Z,8.10
2023-03-17T20:41:09.485Z,8.55
2023-03-17T20:43:14.093Z,8.38
2023-03-17T20:45:18.888Z,9.35
2023-03-17T20:47:22.235Z,8.63
2023-03-17T20:49:25.507Z,8.85
2023-03-17T20:51:28.995Z,8.95
2023-03-17T20:53:36.479Z,8.38
2023-03-17T20:55:43.300Z,9.82
2023-03-17T20:57:52.905Z,12.13
2023-03-17T20:59:58.433Z,11.60
2023-03-17T21:02:02.184Z,9.50
2023-03-17T21:04:09.236Z,9.63
2023-03-17T21:06:13.034Z,10.88
2023-03-17T21:08:17.540Z,11.20
2023-03-17T21:10:21.222Z,10.30
2023-03-17T21:12:27.693Z,9.13
2023-03-17T21:14:31.214Z,9.02
2023-03-17T21:16:35.093Z,8.80
2023-03-17T21:18:38.538Z,8.27
2023-03-17T21:20:51.301Z,8.57
2023-03-17T21:22:54.987Z,8.48
2023-03-17T21:24:58.303Z,8.00
2023-03-17T21:27:02.403Z,8.77
2023-03-17T21:29:07.331Z,8.65
2023-03-17T21:31:10.586Z,9.38
2023-03-17T21:33:14.124Z,8.60
2023-03-17T21:35:18.282Z,8.65
2023-03-17T21:37:27.413Z,8.35
2023-03-17T21:39:30.633Z,8.65
2023-03-17T21:41:35.870Z,8.60
2023-03-17T21:43:39.154Z,8.90
2023-03-17T21:45:44.456Z,9.32
2023-03-17T21:47:49.451Z,8.75
2023-03-17T21:49:54.119Z,8.65
2023-03-17T21:52:07.395Z,8.50
2023-03-17T21:54:10.607Z,8.35
2023-03-17T21:56:14.206Z,9.15
2023-03-17T21:58:18.047Z,8.95
2023-03-17T22:00:23.620Z,8.50
2023-03-17T22:02:29.991Z,8.45
2023-03-17T22:04:33.644Z,8.45
2023-03-17T22:06:36.951Z,8.55
2023-03-17T22:08:40.659Z,8.40
2023-03-17T22:10:48.478Z,8.10
2023-03-17T22:12:52.252Z,8.18
2023-03-17T22:14:57.869Z,7.82
2023-03-17T22:17:01.889Z,7.38
2023-03-17T22:19:07.320Z,7.88
2023-03-17T22:21:11.012Z,8.40
2023-03-17T22:23:14.561Z,7.35
2023-03-17T22:25:21.129Z,8.48
2023-03-17T22:27:25.943Z,9.55
2023-03-17T22:29:29.715Z,8.90
2023-03-17T22:31:34.945Z,8.65
2023-03-17T22:33:38.866Z,8.70
2023-03-17T22:35:43.924Z,8.45
2023-03-17T22:37:47.531Z,9.98
2023-03-17T22:40:02.586Z,9.40
2023-03-17T22:42:06.638Z,9.23
2023-03-17T22:44:10.247Z,9.70
2023-03-17T22:46:13.976Z,8.88
2023-03-17T22:48:17.319Z,8.98
2023-03-17T22:50:20.779Z,9.52
2023-03-17T22:52:25.507Z,8.73
2023-03-17T22:54:29.865Z,8.50
2023-03-17T22:56:33.307Z,8.63
2023-03-17T22:58:37.369Z,9.05
2023-03-17T23:00:42.582Z,8.80
2023-03-17T23:02:46.518Z,9.73
2023-03-17T23:04:50.540Z,10.07
2023-03-17T23:06:56.540Z,9.57
2023-03-17T23:09:01.408Z,9.95
2023-03-17T23:11:06.202Z,9.32
2023-03-17T23:13:10.080Z,9.77
2023-03-17T23:15:13.654Z,9.57
2023-03-17T23:17:17.157Z,9.65
2023-03-17T23:19:21.419Z,10.05
2023-03-17T23:21:27.887Z,10.02
2023-03-17T23:23:47.299Z,9.68
2023-03-17T23:25:52.219Z,9.57
2023-03-17T23:27:55.869Z,9.50
2023-03-17T23:29:59.463Z,9.88
2023-03-17T23:32:03.998Z,8.32
2023-03-17T23:34:07.941Z,8.20
2023-03-17T23:39:37.188Z,8.40
2023-03-17T23:41:41.963Z,7.75
2023-03-17T23:43:46.870Z,8.85
2023-03-17T23:45:53.052Z,8.05
2023-03-17T23:48:53.576Z,8.02
2023-03-17T23:50:57.503Z,9.30
2023-03-17T23:53:01.461Z,10.00
2023-03-17T23:55:06.164Z,9.43
2023-03-17T23:57:11.253Z,9.15
2023-03-17T23:59:14.755Z,9.90
